sensor_id;sensor_type;location;lat;lon;timestamp;P1;durP1;ratioP1;P2;durP2;ratioP2
55758;SDS011;41678;52.126;20.664;2023-02-01T00:13:09;6.53;;;2.03;;
55758;SDS011;41678;52.126;20.664;2023-02-01T00:18:28;4.53;;;1.70;;
55758;SDS011;41678;52.126;20.664;2023-02-01T00:23:47;8.68;;;3.28;;
55758;SDS011;41678;52.126;20.664;2023-02-01T00:29:18;5.65;;;1.33;;
55758;SDS011;41678;52.126;20.664;2023-02-01T00:34:39;5.93;;;2.70;;
55758;SDS011;41678;52.126;20.664;2023-02-01T00:39:58;5.10;;;1.98;;
55758;SDS011;41678;52.126;20.664;2023-02-01T00:45:18;2.28;;;0.70;;
55758;SDS011;41678;52.126;20.664;2023-02-01T00:50:42;3.42;;;0.85;;
55758;SDS011;41678;52.126;20.664;2023-02-01T00:56:02;4.75;;;1.67;;
55758;SDS011;41678;52.126;20.664;2023-02-01T01:01:24;5.63;;;1.45;;
55758;SDS011;41678;52.126;20.664;2023-02-01T01:06:45;3.80;;;1.55;;
55758;SDS011;41678;52.126;20.664;2023-02-01T01:12:05;4.90;;;1.70;;
55758;SDS011;41678;52.126;20.664;2023-02-01T01:17:24;12.05;;;1.60;;
55758;SDS011;41678;52.126;20.664;2023-02-01T01:22:44;4.07;;;1.30;;
55758;SDS011;41678;52.126;20.664;2023-02-01T01:28:03;3.72;;;0.73;;
55758;SDS011;41678;52.126;20.664;2023-02-01T01:33:23;5.05;;;1.00;;
55758;SDS011;41678;52.126;20.664;2023-02-01T01:38:43;2.00;;;0.90;;
55758;SDS011;41678;52.126;20.664;2023-02-01T01:44:53;4.72;;;1.88;;
55758;SDS011;41678;52.126;20.664;2023-02-01T01:50:02;9.02;;;1.38;;
55758;SDS011;41678;52.126;20.664;2023-02-01T01:55:23;7.85;;;1.65;;
55758;SDS011;41678;52.126;20.664;2023-02-01T02:00:45;6.40;;;1.73;;
55758;SDS011;41678;52.126;20.664;2023-02-01T02:06:10;9.40;;;1.98;;
55758;SDS011;41678;52.126;20.664;2023-02-01T02:11:36;8.63;;;1.42;;
55758;SDS011;41678;52.126;20.664;2023-02-01T02:16:58;5.03;;;1.50;;
55758;SDS011;41678;52.126;20.664;2023-02-01T02:33:41;15.88;;;1.58;;
55758;SDS011;41678;52.126;20.664;2023-02-01T02:39:23;17.45;;;1.77;;
55758;SDS011;41678;52.126;20.664;2023-02-01T02:45:04;1.83;;;0.80;;
55758;SDS011;41678;52.126;20.664;2023-02-01T02:50:47;1.45;;;0.55;;
55758;SDS011;41678;52.126;20.664;2023-02-01T02:56:32;5.65;;;1.98;;
55758;SDS011;41678;52.126;20.664;2023-02-01T03:02:13;7.43;;;1.38;;
55758;SDS011;41678;52.126;20.664;2023-02-01T03:08:03;12.52;;;2.05;;
55758;SDS011;41678;52.126;20.664;2023-02-01T03:24:38;15.88;;;1.63;;
55758;SDS011;41678;52.126;20.664;2023-02-01T03:30:09;4.15;;;1.50;;
55758;SDS011;41678;52.126;20.664;2023-02-01T03:35:44;9.18;;;1.23;;
55758;SDS011;41678;52.126;20.664;2023-02-01T03:46:38;10.30;;;1.73;;
55758;SDS011;41678;52.126;20.664;2023-02-01T03:52:06;2.88;;;1.08;;
55758;SDS011;41678;52.126;20.664;2023-02-01T03:57:35;7.05;;;0.77;;
55758;SDS011;41678;52.126;20.664;2023-02-01T04:02:59;10.15;;;1.90;;
55758;SDS011;41678;52.126;20.664;2023-02-01T04:08:19;9.63;;;1.33;;
55758;SDS011;41678;52.126;20.664;2023-02-01T04:13:40;4.23;;;0.90;;
55758;SDS011;41678;52.126;20.664;2023-02-01T04:18:59;2.13;;;0.98;;
55758;SDS011;41678;52.126;20.664;2023-02-01T04:24:19;7.40;;;1.30;;
55758;SDS011;41678;52.126;20.664;2023-02-01T04:29:39;9.15;;;2.33;;
55758;SDS011;41678;52.126;20.664;2023-02-01T04:34:58;6.88;;;1.67;;
55758;SDS011;41678;52.126;20.664;2023-02-01T04:40:18;5.70;;;0.93;;
55758;SDS011;41678;52.126;20.664;2023-02-01T04:45:37;2.85;;;1.17;;
55758;SDS011;41678;52.126;20.664;2023-02-01T04:50:57;10.63;;;1.52;;
55758;SDS011;41678;52.126;20.664;2023-02-01T04:56:17;3.03;;;0.82;;
55758;SDS011;41678;52.126;20.664;2023-02-01T05:01:36;4.47;;;1.02;;
55758;SDS011;41678;52.126;20.664;2023-02-01T05:06:55;14.98;;;2.35;;
55758;SDS011;41678;52.126;20.664;2023-02-01T05:12:15;12.23;;;1.55;;
55758;SDS011;41678;52.126;20.664;2023-02-01T05:17:53;7.53;;;1.35;;
55758;SDS011;41678;52.126;20.664;2023-02-01T05:23:12;8.98;;;1.95;;
55758;SDS011;41678;52.126;20.664;2023-02-01T05:28:32;12.25;;;1.90;;
55758;SDS011;41678;52.126;20.664;2023-02-01T05:33:51;9.25;;;1.35;;
55758;SDS011;41678;52.126;20.664;2023-02-01T05:39:11;13.55;;;2.03;;
55758;SDS011;41678;52.126;20.664;2023-02-01T05:44:31;7.43;;;1.02;;
55758;SDS011;41678;52.126;20.664;2023-02-01T05:49:50;8.85;;;1.70;;
55758;SDS011;41678;52.126;20.664;2023-02-01T05:55:10;12.88;;;2.10;;
55758;SDS011;41678;52.126;20.664;2023-02-01T06:00:31;15.13;;;2.85;;
55758;SDS011;41678;52.126;20.664;2023-02-01T06:05:51;12.40;;;2.45;;
55758;SDS011;41678;52.126;20.664;2023-02-01T06:11:10;3.75;;;1.50;;
55758;SDS011;41678;52.126;20.664;2023-02-01T06:16:30;14.40;;;3.10;;
55758;SDS011;41678;52.126;20.664;2023-02-01T06:21:51;10.07;;;0.73;;
55758;SDS011;41678;52.126;20.664;2023-02-01T06:27:10;3.78;;;1.25;;
55758;SDS011;41678;52.126;20.664;2023-02-01T06:32:30;14.93;;;1.77;;
55758;SDS011;41678;52.126;20.664;2023-02-01T06:37:50;7.68;;;4.22;;
55758;SDS011;41678;52.126;20.664;2023-02-01T06:43:10;7.57;;;1.25;;
55758;SDS011;41678;52.126;20.664;2023-02-01T06:48:30;4.20;;;1.25;;
55758;SDS011;41678;52.126;20.664;2023-02-01T06:53:50;12.18;;;2.25;;
55758;SDS011;41678;52.126;20.664;2023-02-01T06:59:10;6.53;;;1.35;;
55758;SDS011;41678;52.126;20.664;2023-02-01T07:04:31;9.45;;;2.35;;
55758;SDS011;41678;52.126;20.664;2023-02-01T07:09:51;4.70;;;1.75;;
55758;SDS011;41678;52.126;20.664;2023-02-01T07:15:10;13.20;;;2.75;;
55758;SDS011;41678;52.126;20.664;2023-02-01T07:20:30;4.05;;;2.55;;
55758;SDS011;41678;52.126;20.664;2023-02-01T07:25:53;10.10;;;1.83;;
55758;SDS011;41678;52.126;20.664;2023-02-01T07:31:15;3.85;;;1.80;;
55758;SDS011;41678;52.126;20.664;2023-02-01T07:36:37;2.10;;;0.98;;
55758;SDS011;41678;52.126;20.664;2023-02-01T07:41:57;11.90;;;1.75;;
55758;SDS011;41678;52.126;20.664;2023-02-01T07:47:17;5.45;;;2.50;;
55758;SDS011;41678;52.126;20.664;2023-02-01T07:52:37;10.68;;;2.05;;
55758;SDS011;41678;52.126;20.664;2023-02-01T07:57:57;17.13;;;1.85;;
55758;SDS011;41678;52.126;20.664;2023-02-01T08:03:17;14.70;;;2.42;;
55758;SDS011;41678;52.126;20.664;2023-02-01T08:08:37;12.77;;;2.75;;
55758;SDS011;41678;52.126;20.664;2023-02-01T08:13:57;3.83;;;1.65;;
55758;SDS011;41678;52.126;20.664;2023-02-01T08:19:17;7.78;;;1.55;;
55758;SDS011;41678;52.126;20.664;2023-02-01T08:24:37;8.75;;;1.65;;
55758;SDS011;41678;52.126;20.664;2023-02-01T08:29:59;8.25;;;2.10;;
55758;SDS011;41678;52.126;20.664;2023-02-01T08:35:18;3.55;;;1.00;;
55758;SDS011;41678;52.126;20.664;2023-02-01T08:40:38;4.53;;;1.90;;
55758;SDS011;41678;52.126;20.664;2023-02-01T08:45:57;7.28;;;2.28;;
55758;SDS011;41678;52.126;20.664;2023-02-01T08:51:18;5.78;;;1.65;;
55758;SDS011;41678;52.126;20.664;2023-02-01T08:56:39;15.10;;;3.42;;
55758;SDS011;41678;52.126;20.664;2023-02-01T09:01:58;12.38;;;2.05;;
55758;SDS011;41678;52.126;20.664;2023-02-01T09:07:18;14.00;;;2.22;;
55758;SDS011;41678;52.126;20.664;2023-02-01T09:12:38;22.58;;;2.08;;
55758;SDS011;41678;52.126;20.664;2023-02-01T09:17:58;5.40;;;1.55;;
55758;SDS011;41678;52.126;20.664;2023-02-01T09:28:41;2.85;;;1.08;;
55758;SDS011;41678;52.126;20.664;2023-02-01T09:34:12;9.07;;;1.67;;
55758;SDS011;41678;52.126;20.664;2023-02-01T09:39:31;16.27;;;2.97;;
55758;SDS011;41678;52.126;20.664;2023-02-01T09:50:57;10.63;;;2.00;;
55758;SDS011;41678;52.126;20.664;2023-02-01T09:56:20;5.47;;;1.58;;
55758;SDS011;41678;52.126;20.664;2023-02-01T10:01:43;5.47;;;0.90;;
55758;SDS011;41678;52.126;20.664;2023-02-01T10:29:41;7.07;;;2.35;;
55758;SDS011;41678;52.126;20.664;2023-02-01T10:35:26;20.73;;;4.28;;
55758;SDS011;41678;52.126;20.664;2023-02-01T10:40:53;31.05;;;5.38;;
55758;SDS011;41678;52.126;20.664;2023-02-01T10:46:20;37.30;;;6.82;;
55758;SDS011;41678;52.126;20.664;2023-02-01T10:51:43;23.52;;;6.18;;
55758;SDS011;41678;52.126;20.664;2023-02-01T10:57:26;18.65;;;3.55;;
55758;SDS011;41678;52.126;20.664;2023-02-01T11:02:49;18.33;;;4.25;;
55758;SDS011;41678;52.126;20.664;2023-02-01T11:08:14;30.13;;;5.03;;
55758;SDS011;41678;52.126;20.664;2023-02-01T11:13:38;10.68;;;2.10;;
55758;SDS011;41678;52.126;20.664;2023-02-01T11:18:59;14.45;;;3.72;;
55758;SDS011;41678;52.126;20.664;2023-02-01T11:24:40;10.25;;;2.20;;
55758;SDS011;41678;52.126;20.664;2023-02-01T11:29:59;21.95;;;2.67;;
55758;SDS011;41678;52.126;20.664;2023-02-01T11:35:21;8.05;;;2.85;;
55758;SDS011;41678;52.126;20.664;2023-02-01T11:40:41;12.07;;;3.33;;
55758;SDS011;41678;52.126;20.664;2023-02-01T11:46:01;11.38;;;2.47;;
55758;SDS011;41678;52.126;20.664;2023-02-01T11:57:15;11.10;;;2.80;;
55758;SDS011;41678;52.126;20.664;2023-02-01T12:37:02;15.00;;;2.92;;
55758;SDS011;41678;52.126;20.664;2023-02-01T12:42:40;4.55;;;2.05;;
55758;SDS011;41678;52.126;20.664;2023-02-01T12:48:26;10.85;;;1.60;;
55758;SDS011;41678;52.126;20.664;2023-02-01T12:54:00;23.30;;;3.97;;
55758;SDS011;41678;52.126;20.664;2023-02-01T12:59:31;11.75;;;2.90;;
55758;SDS011;41678;52.126;20.664;2023-02-01T13:10:36;7.43;;;2.63;;
55758;SDS011;41678;52.126;20.664;2023-02-01T13:16:25;15.38;;;3.78;;
55758;SDS011;41678;52.126;20.664;2023-02-01T13:21:56;9.60;;;2.92;;
55758;SDS011;41678;52.126;20.664;2023-02-01T13:27:21;19.67;;;3.00;;
55758;SDS011;41678;52.126;20.664;2023-02-01T13:32:57;14.25;;;3.15;;
55758;SDS011;41678;52.126;20.664;2023-02-01T13:44:15;16.98;;;3.97;;
55758;SDS011;41678;52.126;20.664;2023-02-01T13:49:41;10.13;;;3.08;;
55758;SDS011;41678;52.126;20.664;2023-02-01T13:55:47;11.98;;;3.45;;
55758;SDS011;41678;52.126;20.664;2023-02-01T14:00:41;24.08;;;3.53;;
55758;SDS011;41678;52.126;20.664;2023-02-01T14:06:15;12.23;;;5.05;;
55758;SDS011;41678;52.126;20.664;2023-02-01T14:11:55;12.68;;;4.40;;
55758;SDS011;41678;52.126;20.664;2023-02-01T14:22:40;5.68;;;2.53;;
55758;SDS011;41678;52.126;20.664;2023-02-01T14:28:01;4.18;;;1.70;;
55758;SDS011;41678;52.126;20.664;2023-02-01T14:33:21;16.08;;;2.88;;
55758;SDS011;41678;52.126;20.664;2023-02-01T14:38:47;14.13;;;3.78;;
55758;SDS011;41678;52.126;20.664;2023-02-01T14:49:35;14.35;;;3.95;;
55758;SDS011;41678;52.126;20.664;2023-02-01T14:55:06;7.40;;;2.65;;
55758;SDS011;41678;52.126;20.664;2023-02-01T15:00:54;11.52;;;3.80;;
55758;SDS011;41678;52.126;20.664;2023-02-01T15:06:21;13.90;;;4.38;;
55758;SDS011;41678;52.126;20.664;2023-02-01T15:17:26;13.30;;;3.50;;
55758;SDS011;41678;52.126;20.664;2023-02-01T15:23:03;12.07;;;3.85;;
55758;SDS011;41678;52.126;20.664;2023-02-01T15:28:24;8.17;;;2.77;;
55758;SDS011;41678;52.126;20.664;2023-02-01T15:33:55;8.53;;;3.40;;
55758;SDS011;41678;52.126;20.664;2023-02-01T15:39:21;5.40;;;1.80;;
55758;SDS011;41678;52.126;20.664;2023-02-01T15:44:45;3.42;;;1.33;;
55758;SDS011;41678;52.126;20.664;2023-02-01T15:50:05;3.53;;;1.25;;
55758;SDS011;41678;52.126;20.664;2023-02-01T15:55:32;8.57;;;3.13;;
55758;SDS011;41678;52.126;20.664;2023-02-01T16:00:58;8.25;;;2.85;;
55758;SDS011;41678;52.126;20.664;2023-02-01T16:12:02;7.07;;;2.90;;
55758;SDS011;41678;52.126;20.664;2023-02-01T16:17:23;8.43;;;3.30;;
55758;SDS011;41678;52.126;20.664;2023-02-01T16:22:42;6.90;;;2.70;;
55758;SDS011;41678;52.126;20.664;2023-02-01T16:28:01;8.57;;;4.10;;
55758;SDS011;41678;52.126;20.664;2023-02-01T16:33:21;9.18;;;2.85;;
55758;SDS011;41678;52.126;20.664;2023-02-01T16:38:42;8.13;;;3.67;;
55758;SDS011;41678;52.126;20.664;2023-02-01T16:44:02;6.28;;;2.67;;
55758;SDS011;41678;52.126;20.664;2023-02-01T16:49:23;6.40;;;2.50;;
55758;SDS011;41678;52.126;20.664;2023-02-01T16:54:44;9.93;;;3.20;;
55758;SDS011;41678;52.126;20.664;2023-02-01T17:00:04;10.77;;;4.05;;
55758;SDS011;41678;52.126;20.664;2023-02-01T17:05:24;9.55;;;3.13;;
55758;SDS011;41678;52.126;20.664;2023-02-01T17:10:44;7.03;;;3.20;;
55758;SDS011;41678;52.126;20.664;2023-02-01T17:16:06;21.55;;;4.50;;
55758;SDS011;41678;52.126;20.664;2023-02-01T17:21:38;18.77;;;6.05;;
55758;SDS011;41678;52.126;20.664;2023-02-01T17:27:01;14.57;;;4.15;;
55758;SDS011;41678;52.126;20.664;2023-02-01T17:32:23;15.20;;;5.55;;
55758;SDS011;41678;52.126;20.664;2023-02-01T17:37:44;15.93;;;5.15;;
55758;SDS011;41678;52.126;20.664;2023-02-01T17:43:04;13.18;;;3.85;;
55758;SDS011;41678;52.126;20.664;2023-02-01T17:48:24;11.05;;;3.83;;
55758;SDS011;41678;52.126;20.664;2023-02-01T17:53:44;8.80;;;3.20;;
55758;SDS011;41678;52.126;20.664;2023-02-01T17:59:04;7.15;;;2.63;;
55758;SDS011;41678;52.126;20.664;2023-02-01T18:04:24;9.02;;;2.58;;
55758;SDS011;41678;52.126;20.664;2023-02-01T18:09:43;9.23;;;2.97;;
55758;SDS011;41678;52.126;20.664;2023-02-01T18:15:36;3.00;;;1.23;;
55758;SDS011;41678;52.126;20.664;2023-02-01T18:20:49;5.88;;;1.67;;
55758;SDS011;41678;52.126;20.664;2023-02-01T18:26:10;7.18;;;2.00;;
55758;SDS011;41678;52.126;20.664;2023-02-01T18:31:31;5.60;;;1.75;;
55758;SDS011;41678;52.126;20.664;2023-02-01T18:36:53;11.43;;;2.97;;
55758;SDS011;41678;52.126;20.664;2023-02-01T18:42:13;3.45;;;1.40;;
55758;SDS011;41678;52.126;20.664;2023-02-01T18:47:32;13.70;;;2.28;;
55758;SDS011;41678;52.126;20.664;2023-02-01T18:52:52;9.05;;;3.15;;
55758;SDS011;41678;52.126;20.664;2023-02-01T18:58:13;9.77;;;3.30;;
55758;SDS011;41678;52.126;20.664;2023-02-01T19:03:35;18.85;;;3.97;;
55758;SDS011;41678;52.126;20.664;2023-02-01T19:08:55;16.10;;;3.80;;
55758;SDS011;41678;52.126;20.664;2023-02-01T19:14:14;6.57;;;2.78;;
55758;SDS011;41678;52.126;20.664;2023-02-01T19:19:34;19.73;;;3.40;;
55758;SDS011;41678;52.126;20.664;2023-02-01T19:24:55;34.10;;;3.88;;
55758;SDS011;41678;52.126;20.664;2023-02-01T19:30:14;11.35;;;3.65;;
55758;SDS011;41678;52.126;20.664;2023-02-01T19:35:35;17.25;;;3.72;;
55758;SDS011;41678;52.126;20.664;2023-02-01T19:40:55;16.38;;;3.47;;
55758;SDS011;41678;52.126;20.664;2023-02-01T19:46:25;21.20;;;5.25;;
55758;SDS011;41678;52.126;20.664;2023-02-01T19:51:45;18.90;;;4.10;;
55758;SDS011;41678;52.126;20.664;2023-02-01T19:57:06;18.50;;;3.63;;
55758;SDS011;41678;52.126;20.664;2023-02-01T20:02:26;13.43;;;3.53;;
55758;SDS011;41678;52.126;20.664;2023-02-01T20:07:47;20.40;;;4.85;;
55758;SDS011;41678;52.126;20.664;2023-02-01T20:13:07;21.70;;;7.50;;
55758;SDS011;41678;52.126;20.664;2023-02-01T20:24:50;38.03;;;9.25;;
55758;SDS011;41678;52.126;20.664;2023-02-01T20:30:10;29.05;;;8.85;;
55758;SDS011;41678;52.126;20.664;2023-02-01T20:35:30;22.83;;;6.22;;
55758;SDS011;41678;52.126;20.664;2023-02-01T20:40:49;18.80;;;4.95;;
55758;SDS011;41678;52.126;20.664;2023-02-01T20:46:09;21.35;;;4.75;;
55758;SDS011;41678;52.126;20.664;2023-02-01T20:51:29;17.15;;;4.85;;
55758;SDS011;41678;52.126;20.664;2023-02-01T20:56:48;13.07;;;3.38;;
55758;SDS011;41678;52.126;20.664;2023-02-01T21:02:09;11.70;;;3.67;;
55758;SDS011;41678;52.126;20.664;2023-02-01T21:07:28;9.27;;;3.22;;
55758;SDS011;41678;52.126;20.664;2023-02-01T21:12:48;18.00;;;3.72;;
55758;SDS011;41678;52.126;20.664;2023-02-01T21:18:08;15.55;;;3.88;;
55758;SDS011;41678;52.126;20.664;2023-02-01T21:23:32;13.43;;;3.83;;
55758;SDS011;41678;52.126;20.664;2023-02-01T21:28:52;12.00;;;3.55;;
55758;SDS011;41678;52.126;20.664;2023-02-01T21:34:13;8.55;;;2.92;;
55758;SDS011;41678;52.126;20.664;2023-02-01T21:39:32;11.75;;;3.40;;
55758;SDS011;41678;52.126;20.664;2023-02-01T21:44:51;7.80;;;2.85;;
55758;SDS011;41678;52.126;20.664;2023-02-01T21:50:14;8.20;;;3.47;;
55758;SDS011;41678;52.126;20.664;2023-02-01T21:55:35;18.98;;;4.45;;
55758;SDS011;41678;52.126;20.664;2023-02-01T22:00:54;16.67;;;5.20;;
55758;SDS011;41678;52.126;20.664;2023-02-01T22:06:27;16.67;;;4.93;;
55758;SDS011;41678;52.126;20.664;2023-02-01T22:11:53;11.50;;;5.00;;
55758;SDS011;41678;52.126;20.664;2023-02-01T22:17:13;9.13;;;3.40;;
55758;SDS011;41678;52.126;20.664;2023-02-01T22:22:32;12.18;;;4.00;;
55758;SDS011;41678;52.126;20.664;2023-02-01T22:27:52;6.88;;;3.00;;
55758;SDS011;41678;52.126;20.664;2023-02-01T22:33:11;11.27;;;4.45;;
55758;SDS011;41678;52.126;20.664;2023-02-01T22:38:31;15.60;;;3.65;;
55758;SDS011;41678;52.126;20.664;2023-02-01T22:43:52;15.10;;;4.30;;
55758;SDS011;41678;52.126;20.664;2023-02-01T22:49:12;14.05;;;4.68;;
55758;SDS011;41678;52.126;20.664;2023-02-01T22:54:32;10.30;;;3.78;;
55758;SDS011;41678;52.126;20.664;2023-02-01T22:59:52;17.38;;;6.88;;
55758;SDS011;41678;52.126;20.664;2023-02-01T23:05:11;11.60;;;5.60;;
55758;SDS011;41678;52.126;20.664;2023-02-01T23:10:30;14.50;;;6.57;;
55758;SDS011;41678;52.126;20.664;2023-02-01T23:15:50;14.32;;;5.68;;
55758;SDS011;41678;52.126;20.664;2023-02-01T23:21:10;13.95;;;4.65;;
55758;SDS011;41678;52.126;20.664;2023-02-01T23:26:33;16.88;;;4.93;;
55758;SDS011;41678;52.126;20.664;2023-02-01T23:31:53;20.00;;;7.90;;
55758;SDS011;41678;52.126;20.664;2023-02-01T23:37:12;8.70;;;3.88;;
55758;SDS011;41678;52.126;20.664;2023-02-01T23:42:32;9.27;;;3.70;;
55758;SDS011;41678;52.126;20.664;2023-02-01T23:47:53;11.43;;;5.30;;
55758;SDS011;41678;52.126;20.664;2023-02-01T23:53:12;13.25;;;4.32;;
55758;SDS011;41678;52.126;20.664;2023-02-01T23:58:32;7.68;;;3.08;;
